sensor_id;sensor_type;location;lat;lon;timestamp;temperature;humidity
52947;DHT22;68773;40.400;17.260;2023-07-30T00:01:40;25.80;82.50
52947;DHT22;68773;40.400;17.260;2023-07-30T00:04:06;25.90;81.60
52947;DHT22;68773;40.400;17.260;2023-07-30T00:06:31;26.00;80.30
52947;DHT22;68773;40.400;17.260;2023-07-30T00:08:57;25.80;80.10
52947;DHT22;68773;40.400;17.260;2023-07-30T00:11:23;25.60;79.30
52947;DHT22;68773;40.400;17.260;2023-07-30T00:13:49;25.50;79.80
52947;DHT22;68773;40.400;17.260;2023-07-30T00:16:14;25.40;79.40
52947;DHT22;68773;40.400;17.260;2023-07-30T00:18:40;25.40;79.20
52947;DHT22;68773;40.400;17.260;2023-07-30T00:21:05;25.40;79.80
52947;DHT22;68773;40.400;17.260;2023-07-30T00:23:31;25.50;78.70
52947;DHT22;68773;40.400;17.260;2023-07-30T00:25:57;25.60;79.10
52947;DHT22;68773;40.400;17.260;2023-07-30T00:28:22;25.60;75.90
52947;DHT22;68773;40.400;17.260;2023-07-30T00:30:48;25.70;77.40
52947;DHT22;68773;40.400;17.260;2023-07-30T00:33:14;25.80;75.20
52947;DHT22;68773;40.400;17.260;2023-07-30T00:35:39;25.70;75.80
52947;DHT22;68773;40.400;17.260;2023-07-30T00:38:05;25.90;75.40
52947;DHT22;68773;40.400;17.260;2023-07-30T00:40:31;25.90;76.10
52947;DHT22;68773;40.400;17.260;2023-07-30T00:42:56;25.80;75.50
52947;DHT22;68773;40.400;17.260;2023-07-30T00:45:22;25.80;76.00
52947;DHT22;68773;40.400;17.260;2023-07-30T00:47:48;25.70;75.80
52947;DHT22;68773;40.400;17.260;2023-07-30T00:50:14;25.60;76.30
52947;DHT22;68773;40.400;17.260;2023-07-30T00:52:41;25.70;76.80
52947;DHT22;68773;40.400;17.260;2023-07-30T00:55:08;25.80;76.40
52947;DHT22;68773;40.400;17.260;2023-07-30T00:57:36;25.90;75.90
52947;DHT22;68773;40.400;17.260;2023-07-30T01:00:02;25.90;75.70
52947;DHT22;68773;40.400;17.260;2023-07-30T01:02:31;25.90;75.10
52947;DHT22;68773;40.400;17.260;2023-07-30T01:04:58;25.80;75.60
52947;DHT22;68773;40.400;17.260;2023-07-30T01:07:25;25.80;76.40
52947;DHT22;68773;40.400;17.260;2023-07-30T01:09:51;25.80;75.50
52947;DHT22;68773;40.400;17.260;2023-07-30T01:12:17;25.70;76.40
52947;DHT22;68773;40.400;17.260;2023-07-30T01:14:45;25.70;77.10
52947;DHT22;68773;40.400;17.260;2023-07-30T01:17:11;25.80;79.30
52947;DHT22;68773;40.400;17.260;2023-07-30T01:19:37;25.80;79.90
52947;DHT22;68773;40.400;17.260;2023-07-30T01:22:03;25.70;79.00
52947;DHT22;68773;40.400;17.260;2023-07-30T01:24:29;25.80;81.20
52947;DHT22;68773;40.400;17.260;2023-07-30T01:27:28;25.90;81.00
52947;DHT22;68773;40.400;17.260;2023-07-30T01:32:27;26.00;84.20
52947;DHT22;68773;40.400;17.260;2023-07-30T01:34:57;26.10;84.50
52947;DHT22;68773;40.400;17.260;2023-07-30T01:37:23;26.20;84.40
52947;DHT22;68773;40.400;17.260;2023-07-30T01:39:50;26.10;84.50
52947;DHT22;68773;40.400;17.260;2023-07-30T01:42:16;26.20;84.20
52947;DHT22;68773;40.400;17.260;2023-07-30T01:44:43;26.20;85.20
52947;DHT22;68773;40.400;17.260;2023-07-30T01:47:08;26.10;85.00
52947;DHT22;68773;40.400;17.260;2023-07-30T01:49:34;26.10;85.00
52947;DHT22;68773;40.400;17.260;2023-07-30T01:52:00;26.10;86.50
52947;DHT22;68773;40.400;17.260;2023-07-30T01:54:26;26.10;88.10
52947;DHT22;68773;40.400;17.260;2023-07-30T01:56:52;26.10;87.60
52947;DHT22;68773;40.400;17.260;2023-07-30T01:59:18;26.00;87.50
52947;DHT22;68773;40.400;17.260;2023-07-30T02:01:44;25.90;86.30
52947;DHT22;68773;40.400;17.260;2023-07-30T02:04:10;25.90;85.30
52947;DHT22;68773;40.400;17.260;2023-07-30T02:06:35;25.70;85.10
52947;DHT22;68773;40.400;17.260;2023-07-30T02:09:01;25.60;85.50
52947;DHT22;68773;40.400;17.260;2023-07-30T02:11:27;25.60;84.60
52947;DHT22;68773;40.400;17.260;2023-07-30T02:13:54;25.50;83.60
52947;DHT22;68773;40.400;17.260;2023-07-30T02:16:20;25.40;83.60
52947;DHT22;68773;40.400;17.260;2023-07-30T02:18:46;25.30;83.70
52947;DHT22;68773;40.400;17.260;2023-07-30T02:21:12;25.30;83.50
52947;DHT22;68773;40.400;17.260;2023-07-30T02:23:38;25.30;84.80
52947;DHT22;68773;40.400;17.260;2023-07-30T02:26:04;25.20;84.50
52947;DHT22;68773;40.400;17.260;2023-07-30T02:28:29;25.20;84.80
52947;DHT22;68773;40.400;17.260;2023-07-30T02:30:55;25.20;82.60
52947;DHT22;68773;40.400;17.260;2023-07-30T02:33:21;25.20;80.60
52947;DHT22;68773;40.400;17.260;2023-07-30T02:35:46;25.30;83.00
52947;DHT22;68773;40.400;17.260;2023-07-30T02:38:12;25.30;83.90
52947;DHT22;68773;40.400;17.260;2023-07-30T02:40:38;25.20;82.10
52947;DHT22;68773;40.400;17.260;2023-07-30T02:43:03;25.20;82.90
52947;DHT22;68773;40.400;17.260;2023-07-30T02:45:30;25.10;82.60
52947;DHT22;68773;40.400;17.260;2023-07-30T02:47:56;25.20;86.10
52947;DHT22;68773;40.400;17.260;2023-07-30T02:50:22;25.20;88.00
52947;DHT22;68773;40.400;17.260;2023-07-30T02:52:47;25.10;85.80
52947;DHT22;68773;40.400;17.260;2023-07-30T02:55:13;25.10;85.60
52947;DHT22;68773;40.400;17.260;2023-07-30T02:57:39;25.20;87.20
52947;DHT22;68773;40.400;17.260;2023-07-30T03:00:05;25.40;89.20
52947;DHT22;68773;40.400;17.260;2023-07-30T03:02:31;25.40;88.50
52947;DHT22;68773;40.400;17.260;2023-07-30T03:04:56;25.40;88.40
52947;DHT22;68773;40.400;17.260;2023-07-30T03:07:22;25.40;89.30
52947;DHT22;68773;40.400;17.260;2023-07-30T03:09:48;25.40;88.80
52947;DHT22;68773;40.400;17.260;2023-07-30T03:12:14;25.50;88.00
52947;DHT22;68773;40.400;17.260;2023-07-30T03:14:40;25.50;87.50
52947;DHT22;68773;40.400;17.260;2023-07-30T03:17:05;25.50;86.50
52947;DHT22;68773;40.400;17.260;2023-07-30T03:19:31;25.50;86.50
52947;DHT22;68773;40.400;17.260;2023-07-30T03:21:57;25.40;83.80
52947;DHT22;68773;40.400;17.260;2023-07-30T03:24:23;25.20;83.10
52947;DHT22;68773;40.400;17.260;2023-07-30T03:26:49;25.20;82.60
52947;DHT22;68773;40.400;17.260;2023-07-30T03:29:15;25.10;82.50
52947;DHT22;68773;40.400;17.260;2023-07-30T03:31:41;25.20;82.00
52947;DHT22;68773;40.400;17.260;2023-07-30T03:34:07;25.20;81.60
52947;DHT22;68773;40.400;17.260;2023-07-30T03:36:32;25.10;81.50
52947;DHT22;68773;40.400;17.260;2023-07-30T03:38:58;25.10;81.90
52947;DHT22;68773;40.400;17.260;2023-07-30T03:41:24;25.10;81.50
52947;DHT22;68773;40.400;17.260;2023-07-30T03:43:50;25.20;80.30
52947;DHT22;68773;40.400;17.260;2023-07-30T03:46:16;25.00;79.50
52947;DHT22;68773;40.400;17.260;2023-07-30T03:48:42;25.00;79.60
52947;DHT22;68773;40.400;17.260;2023-07-30T03:51:07;25.10;78.70
52947;DHT22;68773;40.400;17.260;2023-07-30T03:53:33;25.10;78.80
52947;DHT22;68773;40.400;17.260;2023-07-30T03:55:59;25.10;78.50
52947;DHT22;68773;40.400;17.260;2023-07-30T03:58:25;24.90;78.70
52947;DHT22;68773;40.400;17.260;2023-07-30T04:00:51;24.80;80.60
52947;DHT22;68773;40.400;17.260;2023-07-30T04:03:16;24.60;80.80
52947;DHT22;68773;40.400;17.260;2023-07-30T04:05:42;24.90;80.80
52947;DHT22;68773;40.400;17.260;2023-07-30T04:08:08;24.90;79.80
52947;DHT22;68773;40.400;17.260;2023-07-30T04:10:33;25.10;78.90
52947;DHT22;68773;40.400;17.260;2023-07-30T04:12:59;25.10;78.20
52947;DHT22;68773;40.400;17.260;2023-07-30T04:15:25;25.00;78.70
52947;DHT22;68773;40.400;17.260;2023-07-30T04:17:51;24.90;79.60
52947;DHT22;68773;40.400;17.260;2023-07-30T04:20:17;24.80;79.70
52947;DHT22;68773;40.400;17.260;2023-07-30T04:22:43;24.70;79.60
52947;DHT22;68773;40.400;17.260;2023-07-30T04:25:09;24.60;79.20
52947;DHT22;68773;40.400;17.260;2023-07-30T04:27:38;24.60;79.20
52947;DHT22;68773;40.400;17.260;2023-07-30T04:30:07;24.60;78.20
52947;DHT22;68773;40.400;17.260;2023-07-30T04:32:33;24.60;78.10
52947;DHT22;68773;40.400;17.260;2023-07-30T04:34:59;24.70;77.20
52947;DHT22;68773;40.400;17.260;2023-07-30T04:37:25;24.70;77.70
52947;DHT22;68773;40.400;17.260;2023-07-30T04:39:51;24.70;78.30
52947;DHT22;68773;40.400;17.260;2023-07-30T04:42:16;24.60;78.70
52947;DHT22;68773;40.400;17.260;2023-07-30T04:44:42;24.70;78.60
52947;DHT22;68773;40.400;17.260;2023-07-30T04:47:07;24.90;78.10
52947;DHT22;68773;40.400;17.260;2023-07-30T04:49:33;24.90;77.40
52947;DHT22;68773;40.400;17.260;2023-07-30T04:51:59;24.90;77.50
52947;DHT22;68773;40.400;17.260;2023-07-30T04:54:25;25.00;77.20
52947;DHT22;68773;40.400;17.260;2023-07-30T04:56:50;25.00;77.50
52947;DHT22;68773;40.400;17.260;2023-07-30T04:59:16;25.10;76.80
52947;DHT22;68773;40.400;17.260;2023-07-30T05:01:42;25.10;76.90
52947;DHT22;68773;40.400;17.260;2023-07-30T05:04:07;25.30;76.70
52947;DHT22;68773;40.400;17.260;2023-07-30T05:06:33;25.30;76.50
52947;DHT22;68773;40.400;17.260;2023-07-30T05:08:59;25.40;76.20
52947;DHT22;68773;40.400;17.260;2023-07-30T05:11:25;25.40;76.30
52947;DHT22;68773;40.400;17.260;2023-07-30T05:13:50;25.40;75.90
52947;DHT22;68773;40.400;17.260;2023-07-30T05:16:16;25.50;76.10
52947;DHT22;68773;40.400;17.260;2023-07-30T05:18:42;25.60;76.20
52947;DHT22;68773;40.400;17.260;2023-07-30T05:21:07;25.60;76.00
52947;DHT22;68773;40.400;17.260;2023-07-30T05:23:33;25.80;75.90
52947;DHT22;68773;40.400;17.260;2023-07-30T05:25:59;25.80;76.50
52947;DHT22;68773;40.400;17.260;2023-07-30T05:28:24;25.90;76.90
52947;DHT22;68773;40.400;17.260;2023-07-30T05:30:50;26.00;77.60
52947;DHT22;68773;40.400;17.260;2023-07-30T05:33:16;26.00;77.60
52947;DHT22;68773;40.400;17.260;2023-07-30T05:35:41;26.00;77.70
52947;DHT22;68773;40.400;17.260;2023-07-30T05:38:07;26.10;77.80
52947;DHT22;68773;40.400;17.260;2023-07-30T05:40:35;26.30;78.20
52947;DHT22;68773;40.400;17.260;2023-07-30T05:43:00;26.30;78.20
52947;DHT22;68773;40.400;17.260;2023-07-30T05:45:26;26.40;78.20
52947;DHT22;68773;40.400;17.260;2023-07-30T05:47:52;26.60;78.00
52947;DHT22;68773;40.400;17.260;2023-07-30T05:50:18;26.60;77.30
52947;DHT22;68773;40.400;17.260;2023-07-30T05:52:44;26.70;77.20
52947;DHT22;68773;40.400;17.260;2023-07-30T05:55:09;26.70;77.40
52947;DHT22;68773;40.400;17.260;2023-07-30T05:57:36;26.80;77.80
52947;DHT22;68773;40.400;17.260;2023-07-30T06:00:02;26.80;77.60
52947;DHT22;68773;40.400;17.260;2023-07-30T06:02:27;27.00;78.10
52947;DHT22;68773;40.400;17.260;2023-07-30T06:04:53;27.00;79.00
52947;DHT22;68773;40.400;17.260;2023-07-30T06:07:19;27.10;79.80
52947;DHT22;68773;40.400;17.260;2023-07-30T06:09:44;26.90;80.80
52947;DHT22;68773;40.400;17.260;2023-07-30T06:12:10;27.00;80.90
52947;DHT22;68773;40.400;17.260;2023-07-30T06:14:36;26.80;81.30
52947;DHT22;68773;40.400;17.260;2023-07-30T06:17:02;26.90;81.50
52947;DHT22;68773;40.400;17.260;2023-07-30T06:19:28;27.10;81.70
52947;DHT22;68773;40.400;17.260;2023-07-30T06:21:53;27.20;81.50
52947;DHT22;68773;40.400;17.260;2023-07-30T06:24:20;27.20;80.70
52947;DHT22;68773;40.400;17.260;2023-07-30T06:26:46;27.30;80.40
52947;DHT22;68773;40.400;17.260;2023-07-30T06:29:11;27.30;80.20
52947;DHT22;68773;40.400;17.260;2023-07-30T06:31:37;27.30;79.20
52947;DHT22;68773;40.400;17.260;2023-07-30T06:34:03;27.30;79.50
52947;DHT22;68773;40.400;17.260;2023-07-30T06:36:28;27.40;79.80
52947;DHT22;68773;40.400;17.260;2023-07-30T06:38:54;27.40;80.30
52947;DHT22;68773;40.400;17.260;2023-07-30T06:41:20;27.40;83.90
52947;DHT22;68773;40.400;17.260;2023-07-30T06:43:46;27.40;86.00
52947;DHT22;68773;40.400;17.260;2023-07-30T06:46:12;27.30;86.90
52947;DHT22;68773;40.400;17.260;2023-07-30T06:48:38;27.30;87.40
52947;DHT22;68773;40.400;17.260;2023-07-30T06:51:07;27.20;87.80
52947;DHT22;68773;40.400;17.260;2023-07-30T06:53:33;27.20;88.40
52947;DHT22;68773;40.400;17.260;2023-07-30T06:55:59;27.20;89.40
52947;DHT22;68773;40.400;17.260;2023-07-30T06:58:24;27.20;89.80
52947;DHT22;68773;40.400;17.260;2023-07-30T07:00:50;27.10;89.70
52947;DHT22;68773;40.400;17.260;2023-07-30T07:03:17;27.10;90.20
52947;DHT22;68773;40.400;17.260;2023-07-30T07:05:42;27.20;90.40
52947;DHT22;68773;40.400;17.260;2023-07-30T07:08:08;27.20;90.40
52947;DHT22;68773;40.400;17.260;2023-07-30T07:10:34;27.20;90.60
52947;DHT22;68773;40.400;17.260;2023-07-30T07:12:59;27.20;90.80
52947;DHT22;68773;40.400;17.260;2023-07-30T07:15:25;27.20;91.00
52947;DHT22;68773;40.400;17.260;2023-07-30T07:17:50;27.20;91.20
52947;DHT22;68773;40.400;17.260;2023-07-30T07:20:16;27.20;91.30
52947;DHT22;68773;40.400;17.260;2023-07-30T07:22:42;27.20;91.00
52947;DHT22;68773;40.400;17.260;2023-07-30T07:25:08;27.30;90.90
52947;DHT22;68773;40.400;17.260;2023-07-30T07:27:34;27.30;90.10
52947;DHT22;68773;40.400;17.260;2023-07-30T07:30:00;27.30;89.70
52947;DHT22;68773;40.400;17.260;2023-07-30T07:32:26;27.40;90.20
52947;DHT22;68773;40.400;17.260;2023-07-30T07:34:51;27.40;90.30
52947;DHT22;68773;40.400;17.260;2023-07-30T07:37:17;27.50;90.40
52947;DHT22;68773;40.400;17.260;2023-07-30T07:39:44;27.50;90.30
52947;DHT22;68773;40.400;17.260;2023-07-30T07:42:11;27.50;90.80
52947;DHT22;68773;40.400;17.260;2023-07-30T07:44:37;27.50;90.70
52947;DHT22;68773;40.400;17.260;2023-07-30T07:47:03;27.50;91.00
52947;DHT22;68773;40.400;17.260;2023-07-30T07:49:29;27.60;91.10
52947;DHT22;68773;40.400;17.260;2023-07-30T07:51:55;27.60;91.40
52947;DHT22;68773;40.400;17.260;2023-07-30T07:54:20;27.60;91.60
52947;DHT22;68773;40.400;17.260;2023-07-30T07:56:46;27.60;91.80
52947;DHT22;68773;40.400;17.260;2023-07-30T07:59:12;27.70;92.10
52947;DHT22;68773;40.400;17.260;2023-07-30T08:01:37;27.70;92.30
52947;DHT22;68773;40.400;17.260;2023-07-30T08:04:03;27.70;92.60
52947;DHT22;68773;40.400;17.260;2023-07-30T08:06:30;27.70;92.30
52947;DHT22;68773;40.400;17.260;2023-07-30T08:08:57;27.70;91.50
52947;DHT22;68773;40.400;17.260;2023-07-30T08:11:22;27.60;91.10
52947;DHT22;68773;40.400;17.260;2023-07-30T08:13:48;27.60;90.10
52947;DHT22;68773;40.400;17.260;2023-07-30T08:16:14;27.50;89.60
52947;DHT22;68773;40.400;17.260;2023-07-30T08:18:39;27.50;88.90
52947;DHT22;68773;40.400;17.260;2023-07-30T08:21:05;27.50;87.40
52947;DHT22;68773;40.400;17.260;2023-07-30T08:23:31;27.60;90.00
52947;DHT22;68773;40.400;17.260;2023-07-30T08:25:56;27.60;85.10
52947;DHT22;68773;40.400;17.260;2023-07-30T08:28:22;27.70;84.70
52947;DHT22;68773;40.400;17.260;2023-07-30T08:30:48;27.80;86.60
52947;DHT22;68773;40.400;17.260;2023-07-30T08:33:13;27.80;84.50
52947;DHT22;68773;40.400;17.260;2023-07-30T08:35:39;27.90;81.50
52947;DHT22;68773;40.400;17.260;2023-07-30T08:38:05;28.00;78.70
52947;DHT22;68773;40.400;17.260;2023-07-30T08:40:31;28.00;74.40
52947;DHT22;68773;40.400;17.260;2023-07-30T08:42:58;28.00;80.20
52947;DHT22;68773;40.400;17.260;2023-07-30T08:45:23;28.00;83.10
52947;DHT22;68773;40.400;17.260;2023-07-30T08:47:49;28.00;84.60
52947;DHT22;68773;40.400;17.260;2023-07-30T08:50:15;28.10;81.50
52947;DHT22;68773;40.400;17.260;2023-07-30T08:52:41;28.10;81.10
52947;DHT22;68773;40.400;17.260;2023-07-30T08:55:08;28.20;80.00
52947;DHT22;68773;40.400;17.260;2023-07-30T08:57:37;28.20;76.10
52947;DHT22;68773;40.400;17.260;2023-07-30T09:00:11;28.30;75.30
52947;DHT22;68773;40.400;17.260;2023-07-30T09:02:49;28.30;73.30
52947;DHT22;68773;40.400;17.260;2023-07-30T09:05:16;28.40;74.00
52947;DHT22;68773;40.400;17.260;2023-07-30T09:07:42;28.40;72.00
52947;DHT22;68773;40.400;17.260;2023-07-30T09:10:08;28.40;73.20
52947;DHT22;68773;40.400;17.260;2023-07-30T09:12:35;28.40;73.00
52947;DHT22;68773;40.400;17.260;2023-07-30T09:15:02;28.50;75.60
52947;DHT22;68773;40.400;17.260;2023-07-30T09:17:31;28.50;75.70
52947;DHT22;68773;40.400;17.260;2023-07-30T09:19:59;28.60;76.30
52947;DHT22;68773;40.400;17.260;2023-07-30T09:22:33;28.70;76.40
52947;DHT22;68773;40.400;17.260;2023-07-30T09:25:02;28.70;74.20
52947;DHT22;68773;40.400;17.260;2023-07-30T09:27:28;28.70;76.90
52947;DHT22;68773;40.400;17.260;2023-07-30T09:29:55;28.70;76.30
52947;DHT22;68773;40.400;17.260;2023-07-30T09:32:29;28.70;78.30
52947;DHT22;68773;40.400;17.260;2023-07-30T09:34:56;28.70;76.80
52947;DHT22;68773;40.400;17.260;2023-07-30T09:37:29;28.80;78.30
52947;DHT22;68773;40.400;17.260;2023-07-30T09:39:57;28.70;78.30
52947;DHT22;68773;40.400;17.260;2023-07-30T09:42:27;28.80;76.80
52947;DHT22;68773;40.400;17.260;2023-07-30T09:44:53;28.90;77.60
52947;DHT22;68773;40.400;17.260;2023-07-30T09:47:19;28.90;76.50
52947;DHT22;68773;40.400;17.260;2023-07-30T09:49:44;29.00;77.40
52947;DHT22;68773;40.400;17.260;2023-07-30T09:52:12;29.10;77.60
52947;DHT22;68773;40.400;17.260;2023-07-30T09:54:39;29.20;77.20
52947;DHT22;68773;40.400;17.260;2023-07-30T09:57:06;29.20;76.50
52947;DHT22;68773;40.400;17.260;2023-07-30T09:59:32;29.30;77.90
52947;DHT22;68773;40.400;17.260;2023-07-30T10:01:58;29.30;77.80
52947;DHT22;68773;40.400;17.260;2023-07-30T10:04:24;29.30;78.00
52947;DHT22;68773;40.400;17.260;2023-07-30T10:07:01;29.40;77.40
52947;DHT22;68773;40.400;17.260;2023-07-30T10:09:32;29.40;78.50
52947;DHT22;68773;40.400;17.260;2023-07-30T10:12:00;29.60;77.90
52947;DHT22;68773;40.400;17.260;2023-07-30T10:14:27;29.80;76.80
52947;DHT22;68773;40.400;17.260;2023-07-30T10:16:55;29.90;77.00
52947;DHT22;68773;40.400;17.260;2023-07-30T10:19:26;29.90;75.70
52947;DHT22;68773;40.400;17.260;2023-07-30T10:24:41;29.80;76.20
52947;DHT22;68773;40.400;17.260;2023-07-30T10:27:24;29.80;73.50
52947;DHT22;68773;40.400;17.260;2023-07-30T10:35:05;29.90;76.10
52947;DHT22;68773;40.400;17.260;2023-07-30T10:37:31;29.80;77.10
52947;DHT22;68773;40.400;17.260;2023-07-30T10:39:57;29.80;76.40
52947;DHT22;68773;40.400;17.260;2023-07-30T10:42:22;29.90;74.80
52947;DHT22;68773;40.400;17.260;2023-07-30T10:44:49;29.90;75.20
52947;DHT22;68773;40.400;17.260;2023-07-30T10:47:15;30.00;74.50
52947;DHT22;68773;40.400;17.260;2023-07-30T10:49:41;30.00;74.80
52947;DHT22;68773;40.400;17.260;2023-07-30T10:52:09;29.70;74.90
52947;DHT22;68773;40.400;17.260;2023-07-30T10:54:36;29.90;76.00
52947;DHT22;68773;40.400;17.260;2023-07-30T10:57:05;29.90;74.90
52947;DHT22;68773;40.400;17.260;2023-07-30T10:59:38;30.00;74.30
52947;DHT22;68773;40.400;17.260;2023-07-30T11:02:05;30.00;75.50
52947;DHT22;68773;40.400;17.260;2023-07-30T11:04:34;30.00;76.80
52947;DHT22;68773;40.400;17.260;2023-07-30T11:07:00;29.90;74.90
52947;DHT22;68773;40.400;17.260;2023-07-30T11:09:27;30.00;75.10
52947;DHT22;68773;40.400;17.260;2023-07-30T11:11:55;30.30;73.20
52947;DHT22;68773;40.400;17.260;2023-07-30T11:14:23;30.30;70.70
52947;DHT22;68773;40.400;17.260;2023-07-30T11:19:18;30.60;69.70
52947;DHT22;68773;40.400;17.260;2023-07-30T11:21:48;30.70;70.40
52947;DHT22;68773;40.400;17.260;2023-07-30T11:24:14;30.70;69.10
52947;DHT22;68773;40.400;17.260;2023-07-30T11:26:40;31.00;70.20
52947;DHT22;68773;40.400;17.260;2023-07-30T11:29:32;31.30;71.20
52947;DHT22;68773;40.400;17.260;2023-07-30T11:31:58;31.10;70.50
52947;DHT22;68773;40.400;17.260;2023-07-30T11:34:25;31.30;70.10
52947;DHT22;68773;40.400;17.260;2023-07-30T11:36:52;31.30;69.80
52947;DHT22;68773;40.400;17.260;2023-07-30T11:39:18;30.80;71.00
52947;DHT22;68773;40.400;17.260;2023-07-30T11:41:44;30.90;70.40
52947;DHT22;68773;40.400;17.260;2023-07-30T11:44:33;31.10;70.20
52947;DHT22;68773;40.400;17.260;2023-07-30T11:46:59;30.90;69.00
52947;DHT22;68773;40.400;17.260;2023-07-30T11:49:25;31.20;71.00
52947;DHT22;68773;40.400;17.260;2023-07-30T11:51:50;30.90;69.70
52947;DHT22;68773;40.400;17.260;2023-07-30T11:54:21;30.90;70.20
52947;DHT22;68773;40.400;17.260;2023-07-30T11:56:56;30.80;70.60
52947;DHT22;68773;40.400;17.260;2023-07-30T11:59:22;30.40;71.60
52947;DHT22;68773;40.400;17.260;2023-07-30T12:01:48;30.70;72.00
52947;DHT22;68773;40.400;17.260;2023-07-30T12:04:14;30.90;70.60
52947;DHT22;68773;40.400;17.260;2023-07-30T12:06:43;31.60;69.70
52947;DHT22;68773;40.400;17.260;2023-07-30T12:09:13;31.60;70.40
52947;DHT22;68773;40.400;17.260;2023-07-30T12:11:58;31.20;72.70
52947;DHT22;68773;40.400;17.260;2023-07-30T12:14:27;31.50;71.00
52947;DHT22;68773;40.400;17.260;2023-07-30T12:16:56;30.80;73.60
52947;DHT22;68773;40.400;17.260;2023-07-30T12:19:22;30.50;73.50
52947;DHT22;68773;40.400;17.260;2023-07-30T12:21:48;30.20;75.00
52947;DHT22;68773;40.400;17.260;2023-07-30T12:24:13;30.10;74.00
52947;DHT22;68773;40.400;17.260;2023-07-30T12:26:39;30.40;75.10
52947;DHT22;68773;40.400;17.260;2023-07-30T12:29:05;30.50;74.10
52947;DHT22;68773;40.400;17.260;2023-07-30T12:31:30;30.80;73.50
52947;DHT22;68773;40.400;17.260;2023-07-30T12:33:56;31.40;70.50
52947;DHT22;68773;40.400;17.260;2023-07-30T12:36:22;31.20;71.30
52947;DHT22;68773;40.400;17.260;2023-07-30T12:38:47;31.30;69.70
52947;DHT22;68773;40.400;17.260;2023-07-30T12:41:13;31.60;70.60
52947;DHT22;68773;40.400;17.260;2023-07-30T12:43:39;31.70;70.80
52947;DHT22;68773;40.400;17.260;2023-07-30T12:46:05;31.70;71.50
52947;DHT22;68773;40.400;17.260;2023-07-30T12:48:30;31.60;70.70
52947;DHT22;68773;40.400;17.260;2023-07-30T12:50:56;31.50;73.30
52947;DHT22;68773;40.400;17.260;2023-07-30T12:53:21;31.60;72.20
52947;DHT22;68773;40.400;17.260;2023-07-30T12:55:47;31.40;74.50
52947;DHT22;68773;40.400;17.260;2023-07-30T12:58:13;31.30;74.00
52947;DHT22;68773;40.400;17.260;2023-07-30T13:00:38;31.60;72.40
52947;DHT22;68773;40.400;17.260;2023-07-30T13:03:04;32.00;72.10
52947;DHT22;68773;40.400;17.260;2023-07-30T13:05:30;32.10;72.90
52947;DHT22;68773;40.400;17.260;2023-07-30T13:07:56;31.80;72.30
52947;DHT22;68773;40.400;17.260;2023-07-30T13:10:21;31.30;74.40
52947;DHT22;68773;40.400;17.260;2023-07-30T13:12:47;31.30;75.90
52947;DHT22;68773;40.400;17.260;2023-07-30T13:15:13;31.50;74.90
52947;DHT22;68773;40.400;17.260;2023-07-30T13:17:39;31.90;74.90
52947;DHT22;68773;40.400;17.260;2023-07-30T13:20:05;31.90;75.10
52947;DHT22;68773;40.400;17.260;2023-07-30T13:22:31;32.10;74.50
52947;DHT22;68773;40.400;17.260;2023-07-30T13:24:57;31.80;77.00
52947;DHT22;68773;40.400;17.260;2023-07-30T13:27:23;32.00;75.00
52947;DHT22;68773;40.400;17.260;2023-07-30T13:29:48;31.90;74.70
52947;DHT22;68773;40.400;17.260;2023-07-30T13:32:14;31.00;76.90
52947;DHT22;68773;40.400;17.260;2023-07-30T13:34:40;30.80;77.10
52947;DHT22;68773;40.400;17.260;2023-07-30T13:37:06;30.70;78.90
52947;DHT22;68773;40.400;17.260;2023-07-30T13:39:32;30.60;77.90
52947;DHT22;68773;40.400;17.260;2023-07-30T13:41:57;31.00;78.40
52947;DHT22;68773;40.400;17.260;2023-07-30T13:44:24;31.30;77.90
52947;DHT22;68773;40.400;17.260;2023-07-30T13:46:50;31.60;76.40
52947;DHT22;68773;40.400;17.260;2023-07-30T13:49:16;31.70;76.10
52947;DHT22;68773;40.400;17.260;2023-07-30T13:51:42;32.10;75.10
52947;DHT22;68773;40.400;17.260;2023-07-30T13:54:08;31.70;76.50
52947;DHT22;68773;40.400;17.260;2023-07-30T13:56:34;31.70;77.10
52947;DHT22;68773;40.400;17.260;2023-07-30T13:58:59;31.70;76.60
52947;DHT22;68773;40.400;17.260;2023-07-30T14:01:25;31.50;77.70
52947;DHT22;68773;40.400;17.260;2023-07-30T14:03:51;31.30;79.00
52947;DHT22;68773;40.400;17.260;2023-07-30T14:06:17;31.50;79.90
52947;DHT22;68773;40.400;17.260;2023-07-30T14:08:43;31.50;78.20
52947;DHT22;68773;40.400;17.260;2023-07-30T14:11:08;31.20;80.20
52947;DHT22;68773;40.400;17.260;2023-07-30T14:13:34;31.30;79.30
52947;DHT22;68773;40.400;17.260;2023-07-30T14:16:00;31.10;78.90
52947;DHT22;68773;40.400;17.260;2023-07-30T14:18:25;31.30;79.30
52947;DHT22;68773;40.400;17.260;2023-07-30T14:20:51;31.40;80.10
52947;DHT22;68773;40.400;17.260;2023-07-30T14:23:18;31.70;78.60
52947;DHT22;68773;40.400;17.260;2023-07-30T14:25:43;31.30;80.10
52947;DHT22;68773;40.400;17.260;2023-07-30T14:28:09;31.50;80.50
52947;DHT22;68773;40.400;17.260;2023-07-30T14:30:35;31.70;78.50
52947;DHT22;68773;40.400;17.260;2023-07-30T14:33:02;31.30;78.70
52947;DHT22;68773;40.400;17.260;2023-07-30T14:35:28;31.30;78.30
52947;DHT22;68773;40.400;17.260;2023-07-30T14:37:54;31.10;81.30
52947;DHT22;68773;40.400;17.260;2023-07-30T14:40:20;30.70;83.90
52947;DHT22;68773;40.400;17.260;2023-07-30T14:42:46;30.60;83.60
52947;DHT22;68773;40.400;17.260;2023-07-30T14:45:12;30.70;82.60
52947;DHT22;68773;40.400;17.260;2023-07-30T14:47:37;30.70;83.40
52947;DHT22;68773;40.400;17.260;2023-07-30T14:50:05;30.50;84.50
52947;DHT22;68773;40.400;17.260;2023-07-30T14:52:31;31.00;84.40
52947;DHT22;68773;40.400;17.260;2023-07-30T14:54:57;31.30;85.00
52947;DHT22;68773;40.400;17.260;2023-07-30T14:57:22;31.50;85.30
52947;DHT22;68773;40.400;17.260;2023-07-30T14:59:48;31.60;85.30
52947;DHT22;68773;40.400;17.260;2023-07-30T15:02:14;31.80;84.80
52947;DHT22;68773;40.400;17.260;2023-07-30T15:04:40;31.60;84.70
52947;DHT22;68773;40.400;17.260;2023-07-30T15:07:06;31.60;84.10
52947;DHT22;68773;40.400;17.260;2023-07-30T15:09:34;32.00;84.10
52947;DHT22;68773;40.400;17.260;2023-07-30T15:12:01;31.70;84.10
52947;DHT22;68773;40.400;17.260;2023-07-30T15:14:27;31.70;84.80
52947;DHT22;68773;40.400;17.260;2023-07-30T15:16:53;32.10;84.30
52947;DHT22;68773;40.400;17.260;2023-07-30T15:19:19;32.10;84.50
52947;DHT22;68773;40.400;17.260;2023-07-30T15:21:45;32.00;85.30
52947;DHT22;68773;40.400;17.260;2023-07-30T15:24:10;31.60;86.20